• Join FlightAware (Why Join?)
  • Login
  • US Flag 
09:08PM EST


 

Airport Tracker/Info


-or-


 

Live Flight TrackerFlight Track Log ✈ AAY863 ✈ 29-May-2014 ✈ KCID - KPIE

Flight Track Log - Related Links

Times and Time Zones

All times are in EDT time to prevent confusion due to time zone crossing. See the AAY863 flight status page for this flight to view local times or setup timezone preferences in your user account.

Time Position Orientation Groundspeed Altitude Reporting Facility
EDT Latitude Longitude Course Direction KTS MPH feet Rate Location/Type
08:13PM 41.8161 -91.6408 149° Southeast 231 266 4,100  Level Chicago Center
08:14PM 41.7411 -91.6339 176° South 267 307 6,800 2,760 Climbing Chicago Center
08:15PM 41.6489 -91.6233 175° South 278 320 9,900 2,160 Climbing Chicago Center
08:16PM 41.5639 -91.6178 177° South 308 354 11,300 1,500 Climbing Chicago Center
08:17PM 41.4728 -91.5753 161° South 368 423 13,100 1,800 Climbing Chicago Center
08:18PM 41.2608 -91.3893 149° Southeast  Level FlightAware Approximate
08:18PM 41.3881 -91.5031 147° Southeast 364 419 15,100  Level Chicago Center
08:19PM 41.1637 -91.3130 149° Southeast  Level FlightAware Approximate
08:19PM 41.2956 -91.4267 148° Southeast 390 449 16,600  Level Chicago Center
08:21PM 41.1908 -91.3397 148° Southeast 419 482 18,400 1,680 Climbing Chicago Center
08:22PM 41.0900 -91.2525 147° Southeast 429 494 20,100 1,740 Climbing Chicago Center
08:23PM 40.9700 -91.1378 144° Southeast 442 509 22,000 1,560 Climbing Chicago Center
08:24PM 40.8778 -91.0261 138° Southeast 449 517 23,400 1,320 Climbing Chicago Center
08:25PM 40.7872 -90.9078 135° Southeast 458 527 24,800 1,500 Climbing Chicago Center
08:26PM 40.6769 -90.8192 149° Southeast 463 533 26,600 1,500 Climbing Chicago Center
08:27PM 40.5669 -90.7358 150° Southeast 463 533 28,000 1,140 Climbing Chicago Center
08:28PM 40.4386 -90.6369 150° Southeast 455 524 29,000 480 Climbing Chicago Center
08:29PM 40.3314 -90.5556 150° Southeast 450 518 29,000 300 Level Chicago Center
08:29PM 40.2678 -90.5067 150° Southeast 450 518 29,600 1,020 Climbing Kansas City Center
08:31PM 40.1606 -90.4272 150° Southeast 450 518 30,800 660 Climbing Kansas City Center
08:32PM 40.0525 -90.3467 150° Southeast 450 518 31,000 60 Climbing Kansas City Center
08:33PM 39.9225 -90.2497 150° Southeast 449 517 31,000  Level Kansas City Center
08:34PM 39.8133 -90.1700 151° Southeast 450 518 31,000  Level Kansas City Center
08:35PM 39.7017 -90.0858 150° Southeast 450 518 31,000  Level Kansas City Center
08:36PM 39.5936 -90.0047 150° Southeast 450 518 31,000  Level Kansas City Center
08:37PM 39.4853 -89.9244 150° Southeast 450 518 31,100 480 Climbing Kansas City Center
08:38PM 39.3756 -89.8453 151° Southeast 450 518 32,000 720 Climbing Kansas City Center
08:39PM 39.2692 -89.7658 150° Southeast 446 513 32,600 420 Climbing Kansas City Center
08:40PM 39.1600 -89.6894 152° Southeast 443 510 32,900 180 Climbing Kansas City Center
08:41PM 39.0536 -89.6133 151° Southeast 439 505 33,000  Climbing Kansas City Center
08:42PM 38.9267 -89.5214 151° Southeast 439 505 33,000  Level Kansas City Center
08:43PM 38.8261 -89.4514 152° Southeast 439 505 33,000  Level Kansas City Center
08:44PM 38.7197 -89.3739 150° Southeast 439 505 33,000  Level Kansas City Center
08:45PM 38.6042 -89.2911 151° Southeast 439 505 33,000  Level Kansas City Center
08:46PM 38.4978 -89.2153 151° Southeast 439 505 33,000  Level Kansas City Center
08:47PM 38.3950 -89.1333 148° Southeast 437 503 33,000  Level Kansas City Center
08:48PM 38.3008 -89.0281 139° Southeast 451 519 33,000  Level Kansas City Center
08:49PM 38.1958 -88.9450 148° Southeast 446 513 33,000  Level Kansas City Center
08:50PM 38.0911 -88.8636 149° Southeast 446 513 33,000  Level Kansas City Center
08:51PM 37.9658 -88.7667 149° Southeast 445 512 33,000  Level Kansas City Center
08:52PM 37.8614 -88.6858 149° Southeast 440 506 33,000  Level Kansas City Center
08:53PM 37.7603 -88.6072 148° Southeast 432 497 33,000  Level Kansas City Center
08:54PM 37.6550 -88.5256 148° Southeast 434 499 33,000  Level Kansas City Center
08:55PM 37.5517 -88.4458 149° Southeast 437 503 33,000  Level Kansas City Center
08:56PM 37.4517 -88.3689 149° Southeast 437 503 33,000  Level Kansas City Center
08:57PM 37.3272 -88.2722 148° Southeast 437 503 33,000  Level Kansas City Center
08:58PM 37.2017 -88.1769 149° Southeast 438 504 33,000  Level Memphis Center
09:00PM 37.0931 -88.0947 149° Southeast 434 499 33,000  Level Memphis Center
09:01PM 36.9894 -88.0156 149° Southeast 433 498 33,000  Level Memphis Center
09:02PM 36.8867 -87.9369 149° Southeast 433 498 33,000  Level Memphis Center
09:03PM 36.7844 -87.8603 149° Southeast 432 497 33,000  Level Memphis Center
09:04PM 36.6819 -87.7822 149° Southeast 431 496 33,000  Level Memphis Center
09:05PM 36.5803 -87.7067 149° Southeast 427 491 33,000  Level Memphis Center
09:06PM 36.4778 -87.6300 149° Southeast 427 491 33,000  Level Memphis Center
09:07PM 36.3750 -87.5533 149° Southeast 427 491 33,000  Level Memphis Center
09:08PM 36.2553 -87.4644 149° Southeast 427 491 33,000  Level Memphis Center
09:09PM 36.1525 -87.3900 150° Southeast 427 491 33,000  Level Memphis Center
09:10PM 36.0503 -87.3153 149° Southeast 427 491 33,000  Level Memphis Center
09:11PM 35.9475 -87.2397 149° Southeast 427 491 33,000  Level Memphis Center
09:12PM 35.8450 -87.1633 149° Southeast 427 491 33,000  Level Memphis Center
09:13PM 35.7422 -87.0886 149° Southeast 427 491 33,000  Level Memphis Center
09:14PM 35.6400 -87.0133 149° Southeast 427 491 33,000  Level Memphis Center
09:15PM 35.5372 -86.9394 150° Southeast 427 491 33,000  Level Memphis Center
09:16PM 35.4342 -86.8647 149° Southeast 427 491 33,000  Level Memphis Center
09:17PM 35.3308 -86.7919 150° Southeast 427 491 33,000  Level Memphis Center
09:18PM 35.2278 -86.7161 149° Southeast 427 491 33,000  Level Memphis Center
09:19PM 35.1069 -86.6286 149° Southeast 427 491 33,000  Level Memphis Center
09:20PM 35.0208 -86.5692 151° Southeast 427 491 33,000  Level Memphis Center
09:21PM 34.8975 -86.4822 150° Southeast 427 491 33,000  Level Memphis Center
09:22PM 34.7939 -86.4086 150° Southeast 427 491 33,000  Level Memphis Center
09:23PM 34.6911 -86.3361 150° Southeast 427 491 33,000  Level Memphis Center
09:24PM 34.5867 -86.2628 150° Southeast 427 491 33,000  Level Memphis Center
09:25PM 34.4825 -86.1894 150° Southeast 428 493 33,000  Level Memphis Center
09:26PM 34.3792 -86.1172 150° Southeast 428 493 33,000  Level Memphis Center
09:27PM 34.2892 -86.0528 149° Southeast 426 490 33,000  Level Atlanta Center
09:28PM 34.1858 -85.9825 151° Southeast 426 490 33,000  Level Atlanta Center
09:29PM 34.0786 -85.9097 151° Southeast 431 496 33,000  Level Atlanta Center
09:30PM 33.9753 -85.8372 150° Southeast 431 496 33,000  Level Atlanta Center
09:31PM 33.8842 -85.7778 152° Southeast 426 490 33,000  Level Atlanta Center
09:32PM 33.7686 -85.6956 149° Southeast 433 498 33,000  Level Atlanta Center
09:33PM 33.6631 -85.6236 150° Southeast 433 498 33,000  Level Atlanta Center
09:34PM 33.5594 -85.5519 150° Southeast 433 498 33,000  Level Atlanta Center
09:35PM 33.4519 -85.4803 151° Southeast 433 498 33,000  Level Atlanta Center
09:36PM 33.3483 -85.4092 150° Southeast 440 506 33,000  Level Atlanta Center
09:37PM 33.2386 -85.3328 150° Southeast 440 506 33,000  Level Atlanta Center
09:38PM 33.1347 -85.2642 151° Southeast 440 506 33,000  Level Atlanta Center
09:39PM 33.0375 -85.1983 150° Southeast 440 506 33,000  Level Atlanta Center
09:40PM 32.9231 -85.1575 163° South 434 499 33,000  Level Atlanta Center
09:41PM 32.7958 -85.1211 166° South 429 494 33,000  Level Atlanta Center
09:42PM 32.6961 -85.0828 162° South 423 487 33,000  Level Atlanta Center
09:43PM 32.5753 -85.0422 164° South 427 491 33,000  Level Atlanta Center
09:44PM 32.4631 -85.0039 164° South 435 501 33,000  Level Atlanta Center
09:46PM 32.2419 -84.9314 164° South 427 491 33,000  Level Jacksonville Center
09:47PM 32.1236 -84.8894 163° South 427 491 33,000  Level Jacksonville Center
09:48PM 32.0094 -84.8525 165° South 432 497 33,000  Level Jacksonville Center
09:49PM 31.8931 -84.8133 164° South 432 497 33,000  Level Jacksonville Center
09:50PM 31.7767 -84.7744 164° South 432 497 33,000  Level Jacksonville Center
09:51PM 31.6625 -84.7356 164° South 432 497 33,000  Level Jacksonville Center
09:52PM 31.5419 -84.6964 165° South 432 497 33,000  Level Jacksonville Center
09:53PM 31.4300 -84.6456 159° South 432 497 33,000  Level Jacksonville Center
09:54PM 31.3158 -84.5925 158° South 438 504 33,000  Level Jacksonville Center
09:55PM 31.2017 -84.5394 158° South 444 511 33,000  Level Jacksonville Center
09:56PM 31.0875 -84.4839 157° South 449 517 33,000  Level Jacksonville Center
09:57PM 30.9756 -84.4311 158° South 449 517 33,000  Level Jacksonville Center
09:58PM 30.8614 -84.3786 158° South 449 517 33,000  Level Jacksonville Center
09:59PM 30.7469 -84.3258 158° South 449 517 33,000  Level Jacksonville Center
10:00PM 30.6286 -84.2686 157° South 449 517 33,000  Level Jacksonville Center
10:01PM 30.5164 -84.2164 158° South 449 517 33,000  Level Jacksonville Center
10:02PM 30.4064 -84.1667 159° South 449 517 33,000  Level Jacksonville Center
10:03PM 30.2942 -84.1122 157° South 443 510 33,000 -780 Level Jacksonville Center
10:04PM 30.1819 -84.0603 158° South 443 510 31,500 -1,020 Descending Jacksonville Center
10:05PM 30.0675 -84.0061 158° South 443 510 31,000 -300 Descending Jacksonville Center
10:06PM 29.9553 -83.9544 158° South 443 510 31,000  Level Jacksonville Center
10:07PM 29.8408 -83.9031 159° South 443 510 31,000  Level Jacksonville Center
10:08PM 29.7347 -83.8372 152° Southeast 443 510 31,000  Level Jacksonville Center
10:09PM 29.6267 -83.7694 151° Southeast 438 504 31,000  Level Jacksonville Center
10:10PM 29.5208 -83.6992 150° Southeast 438 504 31,000 -120 Level Jacksonville Center
10:11PM 29.4125 -83.6317 152° Southeast 438 504 30,800 -1,080 Descending Jacksonville Center
10:12PM 29.3169 -83.5714 151° Southeast 438 504 28,900 -1,920 Descending Jacksonville Center
10:13PM 29.2169 -83.5064 150° Southeast 431 496 27,000 -1,860 Descending Jacksonville Center
10:14PM 29.1214 -83.4442 150° Southeast 421 484 25,200 -1,800 Descending Jacksonville Center
10:15PM 29.0275 -83.3842 151° Southeast 398 458 23,500 -1,620 Descending Jacksonville Center
10:16PM 28.9381 -83.3267 151° Southeast 381 438 22,000 -1,560 Descending Jacksonville Center
10:17PM 28.8486 -83.2719 152° Southeast 371 427 20,400 -1,620 Descending Jacksonville Center
10:18PM 28.7589 -83.2122 150° Southeast 371 427 18,800 -1,560 Descending Jacksonville Center
10:19PM 28.6672 -83.1553 151° Southeast 371 427 17,300 -1,560 Descending Jacksonville Center
10:20PM 28.5775 -83.0983 151° Southeast 371 427 15,700 -1,620 Descending Jacksonville Center
10:21PM 28.4833 -83.0333 149° Southeast 362 417 14,100 -1,620 Descending Tampa TRACON
10:22PM 28.4000 -82.9833 152° Southeast 355 409 12,600 -1,440 Descending Tampa TRACON
10:23PM 28.3000 -82.9333 156° South 339 390 11,300 -1,200 Descending Tampa TRACON
10:24PM 28.2333 -82.9000 156° South 293 337 10,200 -1,380 Descending Tampa TRACON
10:25PM 28.1500 -82.9000 180° South 280 322 8,600 -1,680 Descending Tampa TRACON
10:26PM 28.0667 -82.9000 180° South 277 319 6,900 -1,080 Descending Tampa TRACON
10:27PM 28.0058 -82.8994 180° South 272 313 6,400 -720 Descending Miami Center
10:28PM 27.9525 -82.8914 172° South 205 236 5,400 -1,200 Descending Miami Center
10:29PM 27.9000 -82.8667 157° South 188 216 4,200 -1,380 Descending Tampa TRACON
10:30PM 27.8667 -82.8333 139° Southeast 188 216 2,900 -1,020 Descending Tampa TRACON
10:31PM 27.8167 -82.7833 139° Southeast 186 214 2,200 -540 Descending Tampa TRACON
10:32PM 27.8000 -82.7333 111° Southeast 164 189 1,900 -360 Descending Tampa TRACON
10:33PM 27.8333 -82.7000 41° Northeast 157 181 1,500 -600 Descending Tampa TRACON
10:34PM 27.8667 -82.6833 24° Northeast 146 168 700 -840 Descending Tampa TRACON